Hydro-Met Data Report Part 1
Issued by NWS Binghamton, NY

Home | Current Version | Previous Version | Text Only | Print | Product List | Glossary On
Versions: 1 2 3 4 5 6 7 8 9 10 11 12 13 14 15 16 17 18 19 20 21 22 23 24 25 26 27 28 29 30 31 32 33 34 35 36 37 38 39
000
SRUS51 KBGM 081718
RR1BGM

Hydrometeorological Data Report
National Weather Service Binghamton NY

.A GNVN6 20161208 E DH0800 /HPIRZ 445.55 : Geneva BCD
.A GNVN6 20161208 E DH0800 /PP M : Geneva Precip
.A ICYN6 20161208 E DH0800 /HPIRZ 380.80 : Ithaca Terminal NGVD29
.A SCBN6 20161208 E DH0800 /QRIRZ 2.730 : Lock CS-1 Cayuga (Mud Lock) Discharge KCFS. (CFS = 2730.420)
.A CAYN6 20161208 E DH0800 /HPIRZ 381.65 : Lock CS-1 Cayuga (Mud Lock) Upper Gage EL. BCD
.A CAYN6 20161208 E DH0800 /PP 0.00 : Lock CS-1 Cayuga (Mud Lock) Precip.
.A CLYN6 20161208 E DH0800 /HPIRZ 385.42 : Lock E-26 Clyde Upper BCD 386.50
.A CYBN6 20161208 E DH0800 /HPIRZ 381.22 : Lock E-26 Clyde Lower BCD 382.30
.A CLYN6 20161208 E DH0800 /QUIRZ 1.243 : Clyde Lock E-26 Discharge KCFS. (CFS = 1243.40)
.A MAYN6 20161208 E DH0800 /HPIRZ 382.40 : Mays Point Lock E-25 Upper BCD 382.40
.A MAZN6 20161208 E DH0800 /HPIRZ 377.30 : Mays Point Lock E-25 Lower BCD 377.30
.A MAYN6 20161208 E DH0800 /PP 0.00 : Mays Point Precip 0.00
.A OWSN6 20161208 E DH0800 /QUIRZ 0.8 : Owasco Lake Discharge KCFS. (CFS = 800.00)
.A CRXN6 20161208 E DH0800 /HPIRZ 374.93 : Cross Lake BCD 375.98
.A CRXN6 20161208 E DH0800 /PP M : Cross Lake Precip M
.A BAAN6 20161208 E DH0800 /HPIRZ 373.57 :Baldwinsville  E-24 UP BCD 374.65
.A BAXN6 20161208 E DH0800 /HPIRZ 364.02 :Baldwinsville  E-24 LO BCD 365.10
.A BALN6 20161208 E DH0800 /HPIRZ M :Baldwinsville USGS M FT
.A BALN6 20161208 E DH0800 /QUIRZ 5.45 :Baldwinsville USGS Discharge KCFS. (CFS = 5450.00)
.A BALN6 20161208 E DH0800 /PP 0.00 : Balwinsville Lock E-24 Precip 0.00
.A ONLN6 20161208 E DH0800 /HPIRZ 362.92 : Onondaga Lake BCD 363.93
.A CLEN6 20161208 E DH0800 /HPIRZ 369.37 : Cleveland BCD 370.90
.A CLEN6 20161208 E DH0800 /PP M : Cleveland Precip M
.A CAUN6 20161208 E DH0800 /HPIRZ 369.04 : Brewerton Lock E-23 UPPER BCD 370.10
.A BWTN6 20161208 E DH0800 /HPIRZ 363.34 : Brewerton Lock E-23 LOWER BCD 364.40
.A BWTN6 20161208 E DH0800 /QRIRZ 5.360 : Brewerton Lock E-23 DISCHARGE KCFS. (CFS = 5360.00 )
.A BWTN6 20161208 E DH0800 /HPIRP 363.48 : Brewerton USGS 363.48
.A BWTN6 20161208 E DH0800 /SF 0.00 : Brewerton Snowfall 0.00
.A BWTN6 20161208 E DH0800 /PP 0.03 : Brewerton Precip 0.03
.A PXAN6 20161208 E DH0800 /HPIRZ 362.65 : Phoenix Lock O-1 Upper BCD 363.70
.A PXBN6 20161208 E DH0800 /HPIRZ 355.15 : Phoenix Lock O-1 Lower BCD 356.20
.A PXAN6 20161208 E DH0800 /QUIRZ 13.939 : Phoenix Lock O-1 Discharge KCFS. (CFS = 13939.00 )



USA.gov is the U.S. government's official web portal to all federal, state and local government web resources and services.